Time;durP1;ratioP1;P1;durP2;ratioP2;P2;SDS_P1;SDS_P2;PMS_P1;PMS_P2;Temp;Humidity;BMP_temperature;BMP_pressure;BME280_temperature;BME280_humidity;BME280_pressure;Samples;Min_cycle;Max_cycle;Signal;HPM_P1;HPM_P2
2022/10/15 00:00:17;;;;;;;36.78;27.27;;;;;;;10.00;100.00;100647.59;5034654;28;20052;-62
2022/10/15 00:02:42;;;;;;;38.03;28.40;;;;;;;9.97;100.00;100651.75;5034561;28;20040;-62
2022/10/15 00:05:07;;;;;;;41.63;29.88;;;;;;;9.95;100.00;100655.97;5034806;28;20030;-61
2022/10/15 00:07:33;;;;;;;40.63;30.73;;;;;;;9.93;100.00;100647.16;5034647;28;20033;-62
2022/10/15 00:09:58;;;;;;;40.72;30.42;;;;;;;9.91;100.00;100658.53;5034327;28;20120;-62
2022/10/15 00:12:23;;;;;;;40.28;29.00;;;;;;;9.86;100.00;100655.88;5016630;28;20041;-60
2022/10/15 00:14:49;;;;;;;39.05;28.85;;;;;;;9.87;100.00;100653.91;5034764;28;20506;-61
2022/10/15 00:17:14;;;;;;;40.20;27.38;;;;;;;9.85;100.00;100651.47;5016920;28;20021;-62
2022/10/15 00:19:39;;;;;;;38.33;28.52;;;;;;;9.86;100.00;100652.28;5034392;28;20029;-60
2022/10/15 00:22:04;;;;;;;39.38;27.88;;;;;;;9.84;100.00;100656.16;5034560;28;20146;-61
2022/10/15 00:24:30;;;;;;;41.45;28.88;;;;;;;9.84;100.00;100649.84;5034163;28;20044;-62
2022/10/15 00:26:55;;;;;;;38.88;28.52;;;;;;;9.83;100.00;100656.47;5034105;28;20035;-61
2022/10/15 00:29:20;;;;;;;38.42;28.38;;;;;;;9.83;100.00;100653.72;5034345;28;20025;-61
2022/10/15 00:31:46;;;;;;;37.35;27.77;;;;;;;9.84;100.00;100661.69;5034180;28;20432;-62
2022/10/15 00:34:11;;;;;;;37.83;28.38;;;;;;;9.83;100.00;100654.53;5034150;28;20025;-60
2022/10/15 00:36:36;;;;;;;39.47;28.95;;;;;;;9.88;100.00;100659.13;5016127;28;20025;-61
2022/10/15 00:39:04;;;;;;;40.00;30.38;;;;;;;9.85;100.00;100648.72;5033745;28;20034;-61
2022/10/15 00:41:39;;;;;;;41.03;31.30;;;;;;;9.91;100.00;100653.00;5033750;28;20037;-60
2022/10/15 00:44:19;;;;;;;41.85;30.92;;;;;;;10.04;100.00;100665.19;5033875;28;20030;-62
2022/10/15 00:46:48;;;;;;;44.70;32.03;;;;;;;9.98;100.00;100644.31;5033717;28;20461;-62
2022/10/15 00:49:17;;;;;;;43.95;31.90;;;;;;;10.15;100.00;100672.16;5015717;28;20500;-62
2022/10/15 00:51:51;;;;;;;48.45;34.42;;;;;;;10.21;100.00;100658.22;5033050;28;20542;-61
2022/10/15 00:54:19;;;;;;;47.78;35.08;;;;;;;10.35;100.00;100663.72;5033750;28;20021;-61
2022/10/15 00:56:47;;;;;;;48.50;35.90;;;;;;;10.38;100.00;100663.97;5033857;28;20018;-60
2022/10/15 00:59:15;;;;;;;47.67;34.65;;;;;;;10.43;100.00;100666.63;5033497;28;20119;-61
2022/10/15 01:01:40;;;;;;;50.75;35.08;;;;;;;10.49;100.00;100659.03;5033928;28;20026;-61
2022/10/15 01:04:07;;;;;;;50.00;36.20;;;;;;;10.48;100.00;100649.09;5033724;28;20039;-60
2022/10/15 01:06:33;;;;;;;48.70;34.42;;;;;;;10.58;100.00;100662.69;5015902;28;20045;-61
2022/10/15 01:08:59;;;;;;;49.22;35.40;;;;;;;10.59;100.00;100658.81;5033612;28;20021;-62
2022/10/15 01:11:35;;;;;;;48.78;34.78;;;;;;;10.61;100.00;100653.78;5033331;28;20024;-62
2022/10/15 01:14:19;;;;;;;49.83;35.35;;;;;;;10.63;100.00;100645.19;5033394;28;20029;-61
2022/10/15 01:16:49;;;;;;;49.30;36.03;;;;;;;10.65;100.00;100654.00;5033547;28;20156;-61
2022/10/15 01:19:26;;;;;;;47.15;35.50;;;;;;;10.68;100.00;100644.25;5033180;28;20112;-62
2022/10/15 01:22:05;;;;;;;45.58;34.13;;;;;;;10.67;100.00;100640.66;5033337;28;20029;-62
2022/10/15 01:25:12;;;;;;;48.28;35.25;;;;;;;10.69;100.00;100643.91;5015235;28;20057;-61
2022/10/15 01:27:44;;;;;;;45.88;34.63;;;;;;;10.71;100.00;100638.91;4994118;28;20177;-61
2022/10/15 01:30:20;;;;;;;48.33;35.17;;;;;;;10.73;100.00;100628.34;5033497;28;20025;-60
2022/10/15 01:32:54;;;;;;;49.35;35.88;;;;;;;10.74;100.00;100624.44;5033210;28;20041;-62
2022/10/15 01:35:44;;;;;;;49.65;36.53;;;;;;;10.74;100.00;100621.69;5032864;28;20021;-61
2022/10/15 01:38:22;;;;;;;47.50;35.63;;;;;;;10.79;100.00;100622.66;5032902;28;20033;-61
2022/10/15 01:40:59;;;;;;;50.85;36.78;;;;;;;10.78;100.00;100619.09;5032977;28;20052;-61
2022/10/15 01:43:50;;;;;;;47.03;36.05;;;;;;;10.78;100.00;100619.09;5032854;28;20030;-61
2022/10/15 01:46:26;;;;;;;50.03;36.47;;;;;;;10.81;100.00;100623.19;5033062;28;20036;-61
2022/10/15 01:48:54;;;;;;;47.78;37.15;;;;;;;10.80;100.00;100616.00;5033081;28;20061;-61
2022/10/15 01:51:23;;;;;;;50.13;37.70;;;;;;;10.85;100.00;100630.53;5032878;28;20025;-61
2022/10/15 01:53:49;;;;;;;50.47;37.40;;;;;;;10.88;100.00;100627.16;5032296;28;20091;-60
2022/10/15 01:56:20;;;;;;;48.53;37.65;;;;;;;10.81;100.00;100607.41;5014553;28;20185;-60
2022/10/15 01:58:49;;;;;;;49.78;37.80;;;;;;;10.91;100.00;100623.75;5032692;28;20025;-61
2022/10/15 02:01:15;;;;;;;44.95;35.78;;;;;;;10.93;100.00;100620.69;5032181;28;20196;-61
2022/10/15 02:03:51;;;;;;;47.42;36.30;;;;;;;10.97;100.00;100618.91;5033998;22;20529;-59
2022/10/15 02:06:41;;;;;;;46.50;34.65;;;;;;;10.89;100.00;100601.13;4994044;28;20058;-60
2022/10/15 02:09:16;;;;;;;45.92;34.72;;;;;;;10.83;100.00;100591.28;5012667;28;20025;-59
2022/10/15 02:12:17;;;;;;;48.00;34.80;;;;;;;11.01;100.00;100614.38;5012291;28;20055;-59
2022/10/15 02:15:06;;;;;;;47.85;36.22;;;;;;;11.03;100.00;100606.59;4970221;28;20038;-60
2022/10/15 02:17:53;;;;;;;46.08;35.05;;;;;;;11.03;100.00;100609.38;5001966;28;20126;-59
2022/10/15 02:20:27;;;;;;;44.22;33.00;;;;;;;10.97;100.00;100585.69;5012145;28;20423;-59
2022/10/15 02:23:03;;;;;;;45.88;34.55;;;;;;;11.02;100.00;100598.59;5012114;28;20057;-59
2022/10/15 02:25:30;;;;;;;46.80;35.60;;;;;;;11.05;100.00;100597.97;5012242;28;20025;-59
2022/10/15 02:27:57;;;;;;;47.15;34.88;;;;;;;11.05;100.00;100598.78;5012419;28;20438;-59
2022/10/15 02:30:23;;;;;;;45.35;35.20;;;;;;;11.06;100.00;100594.06;5012213;28;20084;-58
2022/10/15 02:32:55;;;;;;;45.25;34.92;;;;;;;11.02;100.00;100590.28;5012025;28;20078;-59
2022/10/15 02:35:23;;;;;;;47.17;36.08;;;;;;;11.03;100.00;100586.38;5012254;28;20034;-59
2022/10/15 02:37:52;;;;;;;45.80;34.67;;;;;;;11.04;100.00;100596.31;5012142;28;20026;-59
2022/10/15 02:40:22;;;;;;;44.97;34.15;;;;;;;10.91;100.00;100570.34;5012167;28;20106;-60
2022/10/15 02:42:49;;;;;;;44.38;34.75;;;;;;;10.99;100.00;100580.66;5011759;28;20363;-60
2022/10/15 02:45:15;;;;;;;46.05;33.80;;;;;;;10.98;100.00;100578.22;5011804;28;20033;-59
2022/10/15 02:47:40;;;;;;;49.53;35.60;;;;;;;10.99;100.00;100566.03;5012005;28;20034;-60
2022/10/15 02:50:05;;;;;;;44.08;34.33;;;;;;;10.98;100.00;100570.72;5011787;28;20029;-59
2022/10/15 02:52:31;;;;;;;45.25;34.63;;;;;;;11.00;100.00;100570.44;5012307;28;20033;-60
2022/10/15 02:54:56;;;;;;;43.95;34.78;;;;;;;10.99;100.00;100561.28;5012337;28;20018;-59
2022/10/15 02:57:21;;;;;;;42.72;33.92;;;;;;;11.01;100.00;100561.81;5012112;28;20030;-60
2022/10/15 02:59:47;;;;;;;44.05;34.60;;;;;;;11.01;100.00;100566.50;5011599;28;20414;-59
2022/10/15 03:02:12;;;;;;;46.50;35.53;;;;;;;11.01;100.00;100553.50;5010727;28;20030;-59
2022/10/15 03:04:38;;;;;;;44.13;35.33;;;;;;;11.02;100.00;100557.06;5011649;28;20038;-60
2022/10/15 03:07:03;;;;;;;44.65;34.30;;;;;;;11.00;100.00;100548.28;5011984;28;20064;-59
2022/10/15 03:09:28;;;;;;;45.00;34.15;;;;;;;10.98;100.00;100547.78;5011572;28;20053;-60
2022/10/15 03:11:53;;;;;;;44.28;34.90;;;;;;;10.97;100.00;100546.13;5011548;28;20025;-58
2022/10/15 03:14:19;;;;;;;44.08;33.33;;;;;;;10.95;100.00;100537.31;5013882;28;20521;-59
2022/10/15 03:16:44;;;;;;;44.47;34.88;;;;;;;10.92;100.00;100536.81;5015398;28;20026;-60
2022/10/15 03:19:10;;;;;;;44.22;34.03;;;;;;;10.93;100.00;100540.44;5015415;28;20022;-59
2022/10/15 03:21:35;;;;;;;43.45;33.60;;;;;;;10.94;100.00;100539.28;5015515;28;20026;-59
2022/10/15 03:24:00;;;;;;;47.33;35.58;;;;;;;10.93;100.00;100537.66;5015265;28;20434;-60
2022/10/15 03:26:26;;;;;;;46.10;34.47;;;;;;;10.95;100.00;100545.63;5015603;28;20037;-61
2022/10/15 03:28:51;;;;;;;46.25;35.60;;;;;;;10.99;100.00;100552.19;5015942;28;20038;-60
2022/10/15 03:31:17;;;;;;;48.83;35.33;;;;;;;10.99;100.00;100552.97;5015559;28;20108;-60
2022/10/15 03:33:42;;;;;;;48.22;36.40;;;;;;;11.00;100.00;100549.09;5015231;28;20030;-59
2022/10/15 03:36:08;;;;;;;49.00;37.45;;;;;;;11.04;100.00;100554.81;5015396;28;20029;-59
2022/10/15 03:38:33;;;;;;;47.58;36.60;;;;;;;11.03;100.00;100550.41;5015308;28;20115;-59
2022/10/15 03:40:58;;;;;;;48.63;36.92;;;;;;;11.04;100.00;100552.88;5015609;28;20057;-58
2022/10/15 03:43:24;;;;;;;48.83;35.97;;;;;;;11.07;100.00;100545.88;5015151;28;20135;-60
2022/10/15 03:45:50;;;;;;;47.75;37.05;;;;;;;11.05;100.00;100540.63;5015481;28;20034;-59
2022/10/15 03:48:15;;;;;;;47.67;36.08;;;;;;;11.06;100.00;100542.28;5015183;28;20026;-60
2022/10/15 03:50:41;;;;;;;49.35;36.53;;;;;;;11.07;100.00;100538.38;5015291;28;20110;-60
2022/10/15 03:53:06;;;;;;;51.33;36.63;;;;;;;11.06;100.00;100533.97;5015277;28;20076;-59
2022/10/15 03:55:32;;;;;;;49.63;36.90;;;;;;;11.10;100.00;100527.81;5014948;28;20022;-60
2022/10/15 03:57:58;;;;;;;48.58;35.15;;;;;;;11.08;100.00;100540.00;5015217;28;20454;-59
2022/10/15 04:00:23;;;;;;;43.83;34.65;;;;;;;11.07;100.00;100529.28;5015272;28;20100;-60
2022/10/15 04:02:48;;;;;;;50.03;35.97;;;;;;;11.12;100.00;100531.09;5015241;28;20509;-59
2022/10/15 04:05:14;;;;;;;49.72;35.47;;;;;;;11.13;100.00;100535.50;5015285;28;20365;-58
2022/10/15 04:07:39;;;;;;;49.33;34.53;;;;;;;11.12;100.00;100520.00;5014853;28;20076;-59
2022/10/15 04:10:05;;;;;;;53.03;40.17;;;;;;;11.14;100.00;100517.75;5014612;28;20021;-59
2022/10/15 04:12:30;;;;;;;50.10;36.03;;;;;;;11.14;100.00;100521.31;5014654;28;20365;-60
2022/10/15 04:14:55;;;;;;;49.72;35.92;;;;;;;11.15;100.00;100527.66;5013477;28;20121;-61
2022/10/15 04:17:21;;;;;;;50.28;36.58;;;;;;;11.15;100.00;100528.50;5014800;28;20124;-58
2022/10/15 04:19:46;;;;;;;49.28;36.38;;;;;;;11.13;100.00;100538.25;5014884;28;20026;-59
2022/10/15 04:22:11;;;;;;;50.70;35.92;;;;;;;11.12;100.00;100536.63;5014664;28;20109;-59
2022/10/15 04:24:37;;;;;;;50.58;35.47;;;;;;;11.12;100.00;100544.94;5013975;28;20038;-60
2022/10/15 04:27:02;;;;;;;54.80;36.70;;;;;;;11.11;100.00;100546.88;5014200;28;20030;-60
2022/10/15 04:29:27;;;;;;;52.03;35.00;;;;;;;11.11;100.00;100557.94;5014127;28;20034;-59
2022/10/15 04:31:53;;;;;;;51.22;34.97;;;;;;;11.17;100.00;100553.09;5013820;28;20469;-59
2022/10/15 04:34:18;;;;;;;51.75;35.58;;;;;;;11.18;100.00;100554.72;5014149;28;20127;-60
2022/10/15 04:36:43;;;;;;;52.78;34.20;;;;;;;11.20;100.00;100549.69;5014747;28;20078;-60
2022/10/15 04:39:08;;;;;;;49.92;34.88;;;;;;;11.21;100.00;100548.56;5014420;28;20109;-60
2022/10/15 04:41:34;;;;;;;53.00;35.38;;;;;;;11.22;100.00;100547.44;5014365;28;20691;-60
2022/10/15 04:43:59;;;;;;;52.90;35.45;;;;;;;11.25;100.00;100538.47;5014211;28;20030;-60
2022/10/15 04:46:24;;;;;;;54.42;36.75;;;;;;;11.31;100.00;100544.69;5014323;28;20028;-59
2022/10/15 04:48:51;;;;;;;57.47;35.95;;;;;;;11.34;100.00;100539.31;5013965;28;20034;-60
2022/10/15 04:51:19;;;;;;;56.15;35.88;;;;;;;11.27;100.00;100525.13;5014204;28;20026;-60
2022/10/15 04:53:45;;;;;;;58.70;37.25;;;;;;;11.39;100.00;100546.66;5014413;28;20038;-60
2022/10/15 04:56:14;;;;;;;59.40;37.40;;;;;;;11.42;100.00;100534.16;5014156;28;20052;-60
2022/10/15 04:58:39;;;;;;;56.38;36.53;;;;;;;11.44;100.00;100531.88;5013953;28;20021;-60
2022/10/15 05:01:07;;;;;;;60.42;36.97;;;;;;;11.43;100.00;100531.06;5013993;28;20033;-59
2022/10/15 05:03:34;;;;;;;57.20;38.03;;;;;;;11.49;100.00;100538.09;5014046;28;20081;-59
2022/10/15 05:06:07;;;;;;;61.88;37.45;;;;;;;11.54;100.00;100548.19;5013981;28;20030;-59
2022/10/15 05:08:34;;;;;;;59.95;36.65;;;;;;;11.55;100.00;100530.44;5013989;28;20327;-60
2022/10/15 05:11:04;;;;;;;59.15;36.80;;;;;;;11.60;100.00;100532.25;5013571;28;20052;-60
2022/10/15 05:13:31;;;;;;;55.53;36.20;;;;;;;11.59;100.00;100537.00;5013705;28;20030;-59
2022/10/15 05:15:56;;;;;;;54.22;36.05;;;;;;;11.61;100.00;100531.13;5013939;28;20033;-60
2022/10/15 05:18:22;;;;;;;55.45;35.47;;;;;;;11.62;100.00;100544.66;5013893;28;20041;-60
2022/10/15 05:20:47;;;;;;;54.45;35.53;;;;;;;11.61;100.00;100531.13;5013800;28;20103;-61
2022/10/15 05:23:13;;;;;;;57.80;34.83;;;;;;;11.64;100.00;100541.56;5013732;28;20032;-59
2022/10/15 05:25:38;;;;;;;56.03;35.75;;;;;;;11.63;100.00;100537.16;5013390;28;20030;-60
2022/10/15 05:28:04;;;;;;;52.40;34.83;;;;;;;11.65;100.00;100538.47;5013256;28;20037;-61
2022/10/15 05:30:29;;;;;;;55.30;34.63;;;;;;;11.66;100.00;100544.84;5013594;28;20476;-60
2022/10/15 05:32:54;;;;;;;55.00;34.67;;;;;;;11.67;100.00;100552.81;5013290;28;20022;-59
2022/10/15 05:35:20;;;;;;;53.60;33.15;;;;;;;11.68;100.00;100550.88;5013081;28;20022;-59
2022/10/15 05:37:45;;;;;;;50.90;33.75;;;;;;;11.69;100.00;100545.03;5012181;28;20040;-60
2022/10/15 05:40:11;;;;;;;49.45;33.47;;;;;;;11.64;100.00;100533.25;5012815;28;20037;-60
2022/10/15 05:42:37;;;;;;;47.97;33.13;;;;;;;11.73;100.00;100553.50;5012933;28;20033;-61
2022/10/15 05:45:02;;;;;;;55.22;35.13;;;;;;;11.70;100.00;100538.34;5013737;28;20077;-60
2022/10/15 05:47:28;;;;;;;51.20;33.95;;;;;;;11.73;100.00;100544.34;5013358;28;20026;-61
2022/10/15 05:49:53;;;;;;;49.63;33.72;;;;;;;11.73;100.00;100549.91;5012816;28;20030;-58
2022/10/15 05:52:18;;;;;;;48.72;31.95;;;;;;;11.70;100.00;100549.44;5012890;28;20034;-59
2022/10/15 05:54:44;;;;;;;45.60;31.60;;;;;;;11.73;100.00;100544.34;5012930;28;20156;-60
2022/10/15 05:57:09;;;;;;;47.05;32.00;;;;;;;11.73;100.00;100538.81;5012494;28;20111;-60
2022/10/15 05:59:34;;;;;;;48.88;31.45;;;;;;;11.74;100.00;100540.44;5012501;28;20022;-60
2022/10/15 06:02:00;;;;;;;46.70;32.42;;;;;;;11.74;100.00;100537.69;5012866;28;20022;-59
2022/10/15 06:04:25;;;;;;;47.20;30.83;;;;;;;11.71;100.00;100528.06;5012298;28;20446;-60
2022/10/15 06:06:50;;;;;;;46.58;31.92;;;;;;;11.73;100.00;100534.09;5013227;28;20447;-59
2022/10/15 06:09:15;;;;;;;43.55;31.00;;;;;;;11.74;100.00;100541.28;5013611;28;20426;-60
2022/10/15 06:11:41;;;;;;;46.13;32.63;;;;;;;11.73;100.00;100538.81;5013851;28;20025;-58
2022/10/15 06:14:07;;;;;;;44.90;31.55;;;;;;;11.75;100.00;100545.69;5013351;28;20049;-60
2022/10/15 06:16:32;;;;;;;45.38;30.92;;;;;;;11.76;100.00;100538.97;5013100;28;20026;-61
2022/10/15 06:18:58;;;;;;;45.58;29.00;;;;;;;11.78;100.00;100538.69;5013204;28;20450;-60
2022/10/15 06:21:23;;;;;;;45.67;29.75;;;;;;;11.79;100.00;100534.78;5012571;28;20026;-63
2022/10/15 06:23:49;;;;;;;41.85;29.27;;;;;;;11.79;100.00;100529.22;5012652;28;20030;-60
2022/10/15 06:26:15;;;;;;;46.42;30.02;;;;;;;11.81;100.00;100538.84;5012968;28;20029;-60
2022/10/15 06:28:40;;;;;;;43.70;28.63;;;;;;;11.81;100.00;100533.31;5012647;28;20394;-60
2022/10/15 06:31:06;;;;;;;46.35;29.52;;;;;;;11.82;100.00;100534.94;5012634;28;20025;-61
2022/10/15 06:33:32;;;;;;;44.13;31.08;;;;;;;11.85;100.00;100533.47;5013364;28;20025;-61
2022/10/15 06:36:03;;;;;;;45.65;31.30;;;;;;;11.81;100.00;100533.31;5012461;28;20038;-60
2022/10/15 06:38:29;;;;;;;44.25;30.33;;;;;;;11.90;100.00;100546.38;5012015;28;20049;-60
2022/10/15 06:40:55;;;;;;;44.05;29.70;;;;;;;11.93;100.00;100545.72;5012307;28;20080;-59
2022/10/15 06:43:20;;;;;;;46.13;30.50;;;;;;;11.93;100.00;100540.19;5012683;28;20541;-60
2022/10/15 06:45:45;;;;;;;45.20;31.02;;;;;;;11.95;100.00;100544.25;5012269;28;20410;-60
2022/10/15 06:48:11;;;;;;;46.40;31.67;;;;;;;11.99;100.00;100541.69;5011882;28;20038;-60
2022/10/15 06:50:38;;;;;;;46.90;30.63;;;;;;;12.02;100.00;100544.63;5012147;28;20369;-59
2022/10/15 06:53:04;;;;;;;46.83;31.10;;;;;;;12.06;100.00;100544.78;5012126;28;20033;-60
2022/10/15 06:55:30;;;;;;;46.97;32.15;;;;;;;12.07;100.00;100545.63;5012553;28;20030;-60
2022/10/15 06:57:56;;;;;;;46.08;31.63;;;;;;;12.08;100.00;100538.94;5012141;28;20072;-60
2022/10/15 07:00:22;;;;;;;45.15;30.42;;;;;;;12.07;100.00;100532.56;4994613;28;20057;-60
2022/10/15 07:02:48;;;;;;;46.38;30.58;;;;;;;12.08;100.00;100538.94;5011826;28;20049;-59
2022/10/15 07:05:13;;;;;;;44.40;29.63;;;;;;;12.12;100.00;100545.47;5011851;28;20041;-60
2022/10/15 07:07:39;;;;;;;44.65;29.23;;;;;;;12.17;100.00;100546.13;5011701;28;20033;-60
2022/10/15 07:10:05;;;;;;;43.95;28.98;;;;;;;12.19;100.00;100539.44;5012386;28;20034;-60
2022/10/15 07:12:30;;;;;;;43.95;28.40;;;;;;;12.23;100.00;100549.56;5012159;28;20037;-60
2022/10/15 07:14:55;;;;;;;41.05;27.70;;;;;;;12.28;100.00;100549.38;4994639;28;20037;-59
2022/10/15 07:17:21;;;;;;;41.65;27.15;;;;;;;12.33;100.00;100553.94;5012330;28;20026;-60
2022/10/15 07:19:46;;;;;;;40.90;26.42;;;;;;;12.37;100.00;100535.53;5012169;28;20026;-60
2022/10/15 07:22:11;;;;;;;40.88;27.58;;;;;;;12.41;100.00;100547.63;5012453;28;20105;-61
2022/10/15 07:24:37;;;;;;;44.28;27.92;;;;;;;12.41;100.00;100547.63;5012725;28;20032;-62
2022/10/15 07:27:02;;;;;;;42.63;27.40;;;;;;;12.38;100.00;100548.25;5012511;28;20363;-61
2022/10/15 07:29:27;;;;;;;40.78;26.27;;;;;;;12.38;100.00;100548.25;5012644;28;20164;-61
2022/10/15 07:31:53;;;;;;;40.35;26.20;;;;;;;12.40;100.00;100542.38;5012777;28;20022;-59
2022/10/15 07:34:18;;;;;;;40.92;26.38;;;;;;;12.44;100.00;100537.81;5012037;28;20022;-59
2022/10/15 07:36:44;;;;;;;40.72;26.15;;;;;;;12.50;100.00;100539.28;5011839;28;20021;-60
2022/10/15 07:39:09;;;;;;;38.72;25.63;;;;;;;12.58;100.00;100526.56;5011814;28;20030;-60
2022/10/15 07:41:35;;;;;;;38.92;26.00;;;;;;;12.65;100.00;100515.75;5012288;28;20089;-59
2022/10/15 07:44:00;;;;;;;38.65;25.92;;;;;;;12.75;100.00;100509.88;5012026;28;20468;-59
2022/10/15 07:46:25;;;;;;;39.35;25.60;;;;;;;12.85;100.00;100507.91;5012209;28;20030;-61
2022/10/15 07:48:51;;;;;;;37.50;25.83;;;;;;;12.89;100.00;100506.09;4994684;28;20026;-60
2022/10/15 07:51:16;;;;;;;36.90;24.15;;;;;;;12.90;100.00;100516.88;4990872;28;20033;-63
2022/10/15 07:53:42;;;;;;;36.83;24.50;;;;;;;12.88;100.00;100515.59;4995122;28;20375;-61
2022/10/15 07:56:12;;;;;;;38.38;25.70;;;;;;;12.84;100.00;100514.59;4998797;28;20108;-60
2022/10/15 07:58:38;;;;;;;40.45;25.20;;;;;;;12.87;100.00;100519.50;4999664;28;20158;-60
2022/10/15 08:01:05;;;;;;;39.88;25.08;;;;;;;12.85;100.00;100516.22;5003722;28;20093;-61
2022/10/15 08:03:31;;;;;;;36.40;24.08;;;;;;;12.87;100.00;100514.75;5006581;28;20177;-59
2022/10/15 08:05:59;;;;;;;36.13;24.05;;;;;;;12.90;100.00;100500.22;4998646;28;20034;-59
2022/10/15 08:08:24;;;;;;;36.15;23.60;;;;;;;12.99;100.00;100504.94;5015950;23;20100;-62
2022/10/15 08:10:50;;;;;;;33.88;22.85;;;;;;;12.99;100.00;100508.50;5037546;28;20025;-63
2022/10/15 08:13:15;;;;;;;34.63;22.15;;;;;;;13.00;100.00;100506.56;5043739;28;20407;-63
2022/10/15 08:15:41;;;;;;;35.80;22.90;;;;;;;13.02;100.00;100501.50;5044056;28;20025;-63
2022/10/15 08:18:08;;;;;;;35.05;23.13;;;;;;;13.02;100.00;100505.06;5032886;28;20052;-64
2022/10/15 08:20:37;;;;;;;34.08;22.23;;;;;;;13.03;100.00;100503.13;5046733;28;20044;-63
2022/10/15 08:23:04;;;;;;;31.20;20.40;;;;;;;13.06;100.00;100499.66;5052838;28;20085;-62
2022/10/15 08:25:31;;;;;;;34.53;22.17;;;;;;;13.16;100.00;100498.50;5053504;28;20059;-62
2022/10/15 08:27:56;;;;;;;31.35;20.50;;;;;;;13.25;100.00;100493.75;5053033;28;20421;-63
2022/10/15 08:30:22;;;;;;;32.97;22.20;;;;;;;13.35;100.00;100493.38;5053015;28;20032;-64
2022/10/15 08:32:47;;;;;;;30.63;20.17;;;;;;;13.47;100.00;100494.63;5053073;28;20028;-63
2022/10/15 08:35:12;;;;;;;28.83;19.05;;;;;;;13.60;100.00;100496.38;5051706;28;20043;-62
2022/10/15 08:37:38;;;;;;;26.98;17.90;;;;;;;13.70;100.00;100492.38;5052888;28;20058;-62
2022/10/15 08:40:04;;;;;;;27.77;17.65;;;;;;;13.80;100.00;100489.22;5053096;28;20033;-63
2022/10/15 08:42:39;;;;;;;25.95;16.63;;;;;;;13.87;100.00;100485.91;5052765;28;20159;-64
2022/10/15 08:45:11;;;;;;;26.70;17.73;;;;;;;13.81;100.00;100471.38;5030231;28;20043;-66
2022/10/15 08:47:44;;;;;;;27.27;16.88;;;;;;;13.90;100.00;100474.13;5032590;28;20033;-63
2022/10/15 08:50:44;;;;;;;25.65;16.20;;;;;;;13.93;100.00;100476.22;5033061;28;20222;-64
2022/10/15 08:53:18;;;;;;;25.67;16.90;;;;;;;13.90;100.00;100460.22;5026239;28;20053;-63
2022/10/15 08:55:47;;;;;;;23.40;15.68;;;;;;;13.88;100.00;100463.34;5032907;28;20040;-62
2022/10/15 08:58:19;;;;;;;24.05;15.63;;;;;;;14.00;100.00;100476.50;5032892;28;20037;-64
2022/10/15 09:01:03;;;;;;;25.30;15.55;;;;;;;14.04;100.00;100473.84;5032969;28;20396;-63
2022/10/15 09:03:50;;;;;;;25.42;15.93;;;;;;;14.11;100.00;100459.41;5033016;28;20100;-62
2022/10/15 09:06:22;;;;;;;24.00;15.55;;;;;;;14.18;100.00;100459.66;5032674;28;20030;-65
2022/10/15 09:09:00;;;;;;;23.02;15.27;;;;;;;14.24;100.00;100455.50;5032326;28;20493;-62
2022/10/15 09:11:52;;;;;;;25.15;15.95;;;;;;;14.31;100.00;100447.44;5032377;28;20040;-62
2022/10/15 09:14:23;;;;;;;23.17;15.55;;;;;;;14.35;100.00;100453.94;5031799;28;20536;-62
2022/10/15 09:16:49;;;;;;;23.95;16.20;;;;;;;14.37;100.00;100444.44;5032166;28;20152;-63
2022/10/15 09:19:19;;;;;;;23.83;16.75;;;;;;;14.34;100.00;100445.94;5036742;28;20033;-62
2022/10/15 09:21:47;;;;;;;23.42;16.00;;;;;;;14.32;100.00;100439.91;5052049;28;20037;-62
2022/10/15 09:24:18;;;;;;;23.73;16.13;;;;;;;14.34;100.00;100437.59;5052011;28;20021;-63
2022/10/15 09:27:03;;;;;;;23.75;15.90;;;;;;;14.40;100.00;100436.22;5033985;28;20376;-62
2022/10/15 09:29:48;;;;;;;24.38;16.02;;;;;;;14.44;100.00;100439.97;5051854;28;20515;-62
2022/10/15 09:32:30;;;;;;;25.73;16.25;;;;;;;14.42;100.00;100439.50;5051666;28;20028;-64
2022/10/15 09:35:01;;;;;;;25.20;17.00;;;;;;;14.42;100.00;100433.91;5050981;28;20051;-62
2022/10/15 09:37:32;;;;;;;24.63;16.55;;;;;;;14.45;100.00;100436.00;5051293;28;20094;-63
2022/10/15 09:40:13;;;;;;;24.67;16.27;;;;;;;14.46;100.00;100431.25;5033221;28;20250;-64
2022/10/15 09:42:41;;;;;;;23.15;16.05;;;;;;;14.41;100.00;100415.59;5051507;28;20140;-64
2022/10/15 09:45:12;;;;;;;26.20;16.98;;;;;;;14.47;100.00;100430.91;5033366;28;20040;-64
2022/10/15 09:47:40;;;;;;;23.85;16.23;;;;;;;14.42;100.00;100428.34;5051554;28;20138;-64
2022/10/15 09:50:09;;;;;;;22.98;15.73;;;;;;;14.38;100.00;100424.63;5049773;28;20029;-63
2022/10/15 09:52:59;;;;;;;23.10;15.35;;;;;;;14.35;100.00;100422.53;5051280;28;20039;-63
2022/10/15 09:55:34;;;;;;;23.23;15.32;;;;;;;14.37;100.00;100420.19;5033431;28;20120;-62
2022/10/15 09:58:07;;;;;;;22.52;15.32;;;;;;;14.37;100.00;100420.19;5051244;28;20029;-63
2022/10/15 10:01:06;;;;;;;23.05;15.88;;;;;;;14.37;100.00;100420.19;5051248;28;20028;-63
2022/10/15 10:03:34;;;;;;;21.60;15.18;;;;;;;14.30;100.00;100414.38;5028530;28;20041;-63
2022/10/15 10:06:09;;;;;;;22.20;15.23;;;;;;;14.32;100.00;100409.31;5051220;28;20036;-62
2022/10/15 10:08:39;;;;;;;22.33;15.18;;;;;;;14.24;100.00;100399.06;5050582;28;20045;-62
2022/10/15 10:11:08;;;;;;;23.92;15.55;;;;;;;14.27;100.00;100403.94;5051146;28;20032;-62
2022/10/15 10:13:45;;;;;;;22.85;14.50;;;;;;;14.33;100.00;100411.72;5051112;28;20052;-63
2022/10/15 10:16:12;;;;;;;22.85;14.45;;;;;;;14.38;100.00;100407.91;5051298;28;20055;-62
2022/10/15 10:18:38;;;;;;;22.30;14.15;;;;;;;14.41;100.00;100401.69;5049065;28;20527;-64
2022/10/15 10:21:06;;;;;;;22.02;13.77;;;;;;;14.39;100.00;100403.19;5051135;28;20028;-63
2022/10/15 10:23:34;;;;;;;20.80;13.80;;;;;;;14.35;100.00;100400.28;5050213;28;20037;-64
2022/10/15 10:26:02;;;;;;;21.67;14.10;;;;;;;14.32;100.00;100410.09;5051296;28;20021;-62
2022/10/15 10:28:36;;;;;;;21.33;13.73;;;;;;;14.33;100.00;100399.81;5050913;28;20658;-63
2022/10/15 10:31:05;;;;;;;20.90;13.43;;;;;;;14.41;100.00;100400.84;5050414;28;20075;-62
2022/10/15 10:33:43;;;;;;;21.48;13.52;;;;;;;14.46;100.00;100406.22;5050073;28;20025;-62
2022/10/15 10:36:32;;;;;;;21.08;13.02;;;;;;;14.51;100.00;100405.97;5050602;28;20111;-62
2022/10/15 10:39:14;;;;;;;21.80;13.55;;;;;;;14.58;100.00;100397.06;5050727;28;20028;-63
2022/10/15 10:42:18;;;;;;;20.00;13.35;;;;;;;14.63;100.00;100411.59;5050524;28;20025;-63
2022/10/15 10:44:45;;;;;;;20.88;13.73;;;;;;;14.62;100.00;100407.19;5049893;28;20101;-63
2022/10/15 10:47:17;;;;;;;19.90;12.38;;;;;;;14.62;100.00;100401.59;5050294;28;20487;-62
2022/10/15 10:50:26;;;;;;;20.25;13.18;;;;;;;14.60;100.00;100414.25;5050423;28;20032;-63
2022/10/15 10:52:52;;;;;;;18.58;12.52;;;;;;;14.63;100.00;100408.00;5023707;28;20515;-62
2022/10/15 10:55:21;;;;;;;21.05;12.93;;;;;;;14.60;100.00;100401.13;5050214;28;20112;-62
2022/10/15 10:57:50;;;;;;;19.50;12.68;;;;;;;14.63;100.00;100397.66;5049840;28;20052;-61
2022/10/15 11:00:40;;;;;;;19.30;12.90;;;;;;;14.64;100.00;100402.09;5050307;28;20032;-62
2022/10/15 11:03:14;;;;;;;18.40;11.93;;;;;;;14.67;100.00;100395.03;5037770;28;20574;-63
2022/10/15 11:05:39;;;;;;;18.60;12.35;;;;;;;14.70;100.00;100401.88;5049836;28;20406;-63
2022/10/15 11:08:44;;;;;;;18.25;12.55;;;;;;;14.74;100.00;100395.28;5031379;28;20029;-63
2022/10/15 11:11:30;;;;;;;18.08;11.88;;;;;;;14.81;100.00;100392.75;5049652;28;20040;-63